Time;durP1;ratioP1;P1;durP2;ratioP2;P2;SDS_P1;SDS_P2;PMS_P1;PMS_P2;Temp;Humidity;BMP_temperature;BMP_pressure;BME280_temperature;BME280_humidity;BME280_pressure;Samples;Min_cycle;Max_cycle;Signal;HPM_P1;HPM_P2
2023/05/24 00:00:24;;;;;;;4.07;1.70;;;12.50;99.90;;;;;;4174616;28;20480;-62
2023/05/24 00:02:25;;;;;;;5.80;1.85;;;12.50;99.90;;;;;;4177528;28;20106;-62
2023/05/24 00:04:29;;;;;;;6.75;1.70;;;12.50;99.90;;;;;;4177464;28;24867;-62
2023/05/24 00:06:33;;;;;;;4.60;1.70;;;12.40;99.90;;;;;;4173324;28;20029;-62
2023/05/24 00:08:34;;;;;;;4.63;1.63;;;12.40;99.90;;;;;;4175228;28;20539;-62
2023/05/24 00:10:35;;;;;;;5.45;1.90;;;12.40;99.90;;;;;;4176377;28;20029;-62
2023/05/24 00:12:35;;;;;;;6.97;1.83;;;12.30;99.90;;;;;;4176486;28;20045;-62
2023/05/24 00:14:36;;;;;;;4.65;1.88;;;12.40;99.90;;;;;;4177430;28;20029;-62
2023/05/24 00:16:36;;;;;;;5.07;1.77;;;12.30;99.90;;;;;;4176693;28;20120;-62
2023/05/24 00:18:40;;;;;;;6.70;2.15;;;12.30;99.90;;;;;;4176225;28;20017;-62
2023/05/24 00:20:40;;;;;;;5.47;1.77;;;12.30;99.90;;;;;;4174715;28;20087;-62
2023/05/24 00:22:41;;;;;;;7.03;1.80;;;12.30;99.90;;;;;;4178071;28;20029;-62
2023/05/24 00:24:42;;;;;;;7.28;1.92;;;12.30;99.90;;;;;;4177155;28;20112;-62
2023/05/24 00:26:43;;;;;;;8.20;2.38;;;12.30;99.90;;;;;;4175661;28;20112;-62
2023/05/24 00:28:43;;;;;;;4.93;1.60;;;12.20;99.90;;;;;;4173241;28;20036;-62
2023/05/24 00:30:44;;;;;;;4.57;1.67;;;12.20;99.90;;;;;;4171751;28;20029;-62
2023/05/24 00:32:44;;;;;;;5.00;1.80;;;12.20;99.90;;;;;;4175036;28;20044;-62
2023/05/24 00:34:45;;;;;;;5.25;1.60;;;12.20;99.90;;;;;;4175602;28;20035;-62
2023/05/24 00:36:46;;;;;;;4.03;1.33;;;12.20;99.90;;;;;;4175206;28;20290;-62
2023/05/24 00:38:46;;;;;;;6.10;1.67;;;12.20;99.90;;;;;;4175577;28;20029;-62
2023/05/24 00:40:47;;;;;;;6.18;1.98;;;12.20;99.90;;;;;;4175227;28;20404;-61
2023/05/24 00:42:48;;;;;;;4.45;1.90;;;12.20;99.90;;;;;;4176066;28;20033;-61
2023/05/24 00:44:49;;;;;;;4.88;1.73;;;12.20;99.90;;;;;;4175159;28;20036;-62
2023/05/24 00:46:49;;;;;;;6.45;2.00;;;12.10;99.90;;;;;;4175697;28;20036;-62
2023/05/24 00:48:50;;;;;;;4.47;1.30;;;12.10;99.90;;;;;;4175519;28;20099;-62
2023/05/24 00:50:51;;;;;;;6.75;1.52;;;12.10;99.90;;;;;;4175285;28;20040;-62
2023/05/24 00:52:51;;;;;;;7.93;1.80;;;12.10;99.90;;;;;;4176539;28;20048;-62
2023/05/24 00:54:52;;;;;;;4.55;1.42;;;12.10;99.90;;;;;;4176718;28;20028;-62
2023/05/24 00:56:53;;;;;;;5.82;1.60;;;12.00;99.90;;;;;;4174530;28;20037;-62
2023/05/24 00:58:55;;;;;;;5.13;1.48;;;12.00;99.90;;;;;;4175978;28;20033;-62
2023/05/24 01:00:59;;;;;;;4.90;1.67;;;12.10;99.90;;;;;;4173927;28;20061;-62
2023/05/24 01:02:59;;;;;;;3.70;1.67;;;12.00;99.90;;;;;;4175884;28;20034;-62
2023/05/24 01:05:00;;;;;;;5.10;1.67;;;12.00;99.90;;;;;;4176580;28;20484;-62
2023/05/24 01:07:17;;;;;;;4.30;1.65;;;12.00;99.90;;;;;;4172069;28;20029;-62
2023/05/24 01:09:40;;;;;;;5.65;1.77;;;12.00;99.90;;;;;;4171755;28;20057;-62
2023/05/24 01:12:09;;;;;;;4.05;1.35;;;12.00;99.90;;;;;;4170457;28;20060;-62
2023/05/24 01:14:25;;;;;;;5.65;1.70;;;12.00;99.90;;;;;;4171402;28;20047;-62
2023/05/24 01:16:51;;;;;;;4.10;1.58;;;11.90;99.90;;;;;;4173835;28;20491;-62
2023/05/24 01:18:59;;;;;;;5.18;1.85;;;11.90;99.90;;;;;;4165810;28;20048;-62
2023/05/24 01:21:17;;;;;;;7.47;1.58;;;11.90;99.90;;;;;;4173240;28;20044;-62
2023/05/24 01:23:26;;;;;;;5.63;1.70;;;11.90;99.90;;;;;;4172146;28;20037;-62
2023/05/24 01:26:04;;;;;;;4.05;1.33;;;11.90;99.90;;;;;;4171752;28;20044;-62
2023/05/24 01:28:07;;;;;;;5.43;1.67;;;11.90;99.90;;;;;;4171558;28;20036;-61
2023/05/24 01:30:08;;;;;;;4.82;1.70;;;11.80;99.90;;;;;;4171898;28;20482;-63
2023/05/24 01:32:09;;;;;;;4.75;1.73;;;11.80;99.90;;;;;;4173264;28;20458;-62
2023/05/24 01:34:10;;;;;;;5.30;1.65;;;11.80;99.90;;;;;;4175537;28;20037;-62
2023/05/24 01:36:11;;;;;;;6.50;1.90;;;11.80;99.90;;;;;;4174586;28;20500;-62
2023/05/24 01:38:13;;;;;;;9.93;2.13;;;11.80;99.90;;;;;;4173587;28;20029;-62
2023/05/24 01:40:14;;;;;;;5.93;1.80;;;11.70;99.90;;;;;;4169811;28;20063;-63
2023/05/24 01:42:29;;;;;;;5.53;1.65;;;11.70;99.90;;;;;;4175506;28;20460;-61
2023/05/24 01:44:35;;;;;;;7.05;1.83;;;11.70;99.90;;;;;;4172754;28;20061;-62
2023/05/24 01:46:37;;;;;;;7.72;1.58;;;11.60;99.90;;;;;;4173898;28;20067;-62
2023/05/24 01:48:58;;;;;;;4.93;1.70;;;11.60;99.90;;;;;;4170475;28;20037;-63
2023/05/24 01:51:03;;;;;;;5.80;2.03;;;11.60;99.90;;;;;;4172887;28;20041;-62
2023/05/24 01:53:11;;;;;;;5.07;1.75;;;11.60;99.90;;;;;;4173576;28;20041;-61
2023/05/24 01:55:15;;;;;;;4.28;1.73;;;11.60;99.90;;;;;;4174289;28;20029;-62
2023/05/24 01:57:20;;;;;;;5.43;2.00;;;11.60;99.90;;;;;;4175375;28;20052;-62
2023/05/24 01:59:22;;;;;;;4.30;2.22;;;11.60;99.90;;;;;;4172389;28;20530;-62
2023/05/24 02:01:25;;;;;;;3.22;1.48;;;11.50;99.90;;;;;;4174373;28;20025;-62
2023/05/24 02:03:25;;;;;;;8.90;2.25;;;11.50;99.90;;;;;;4170066;28;20057;-61
2023/05/24 02:05:26;;;;;;;3.05;1.52;;;11.50;99.90;;;;;;4174893;28;20190;-62
2023/05/24 02:07:26;;;;;;;6.90;2.35;;;11.40;99.90;;;;;;4175113;28;20037;-62
2023/05/24 02:09:27;;;;;;;7.80;2.17;;;11.40;99.90;;;;;;4171595;28;20032;-61
2023/05/24 02:11:28;;;;;;;5.82;2.13;;;11.40;99.90;;;;;;4174420;28;20119;-62
2023/05/24 02:13:28;;;;;;;5.18;1.85;;;11.40;99.90;;;;;;4175138;28;20064;-62
2023/05/24 02:15:29;;;;;;;5.93;1.88;;;11.40;99.90;;;;;;4173862;28;20044;-62
2023/05/24 02:17:31;;;;;;;6.28;1.80;;;11.40;99.90;;;;;;4175880;28;20393;-62
2023/05/24 02:19:33;;;;;;;5.57;1.95;;;11.40;99.90;;;;;;4173860;28;20136;-62
2023/05/24 02:21:35;;;;;;;5.80;1.60;;;11.40;99.90;;;;;;4175020;28;20514;-62
2023/05/24 02:23:36;;;;;;;4.78;1.67;;;11.40;99.90;;;;;;4172334;28;20057;-62
2023/05/24 02:25:36;;;;;;;5.13;1.27;;;11.40;99.90;;;;;;4173673;28;20120;-62
2023/05/24 02:27:37;;;;;;;4.13;1.42;;;11.30;99.90;;;;;;4175139;28;20157;-62
2023/05/24 02:29:38;;;;;;;4.63;1.70;;;11.30;99.90;;;;;;4173643;28;20148;-62
2023/05/24 02:31:38;;;;;;;5.13;1.75;;;11.30;99.90;;;;;;4172729;28;20134;-64
2023/05/24 02:33:39;;;;;;;4.68;1.55;;;11.30;99.90;;;;;;4172587;28;20040;-65
2023/05/24 02:35:40;;;;;;;5.32;1.63;;;11.20;99.90;;;;;;4173994;28;20068;-65
2023/05/24 02:37:41;;;;;;;5.28;1.63;;;11.20;99.90;;;;;;4171516;28;20091;-64
2023/05/24 02:39:41;;;;;;;3.65;1.42;;;11.20;99.90;;;;;;4174368;28;20033;-65
2023/05/24 02:41:42;;;;;;;3.88;1.52;;;11.20;99.90;;;;;;4173881;28;20036;-64
2023/05/24 02:43:44;;;;;;;6.45;1.70;;;11.20;99.90;;;;;;4174107;28;20179;-64
2023/05/24 02:45:45;;;;;;;4.25;1.48;;;11.10;99.90;;;;;;4172737;28;20056;-64
2023/05/24 02:47:45;;;;;;;3.95;1.38;;;11.10;99.90;;;;;;4171892;28;20108;-64
2023/05/24 02:49:46;;;;;;;2.80;1.23;;;11.10;99.90;;;;;;4173184;28;20029;-64
2023/05/24 02:51:46;;;;;;;2.63;1.15;;;11.10;99.90;;;;;;4173532;28;20075;-64
2023/05/24 02:53:47;;;;;;;4.63;1.60;;;11.00;99.90;;;;;;4172768;28;20067;-62
2023/05/24 02:55:47;;;;;;;6.18;1.58;;;11.00;99.90;;;;;;4174335;28;20056;-61
2023/05/24 02:57:48;;;;;;;3.35;1.15;;;11.00;99.90;;;;;;4174712;28;20087;-62
2023/05/24 02:59:48;;;;;;;5.13;1.88;;;10.90;99.90;;;;;;4174078;28;20030;-62
2023/05/24 03:01:49;;;;;;;2.83;1.50;;;10.90;99.90;;;;;;4175515;28;20038;-62
2023/05/24 03:03:50;;;;;;;6.70;1.85;;;10.90;99.90;;;;;;4177599;28;20043;-62
2023/05/24 03:05:50;;;;;;;6.38;1.83;;;10.90;99.90;;;;;;4176455;28;20033;-62
2023/05/24 03:07:51;;;;;;;6.38;1.75;;;10.90;99.90;;;;;;4177770;28;20039;-62
2023/05/24 03:09:51;;;;;;;3.72;1.52;;;10.90;99.90;;;;;;4175792;28;20508;-61
2023/05/24 03:11:53;;;;;;;3.22;1.38;;;10.80;99.90;;;;;;4176638;28;20502;-62
2023/05/24 03:13:53;;;;;;;5.15;1.55;;;10.90;99.90;;;;;;4179718;28;20033;-62
2023/05/24 03:15:54;;;;;;;5.20;1.80;;;10.80;99.90;;;;;;4175853;28;20473;-62
2023/05/24 03:17:55;;;;;;;5.30;1.60;;;10.80;99.90;;;;;;4178472;28;20029;-61
2023/05/24 03:19:56;;;;;;;4.25;1.50;;;10.70;99.90;;;;;;4176341;28;20080;-61
2023/05/24 03:21:56;;;;;;;3.40;1.45;;;10.70;99.90;;;;;;4175410;28;20056;-61
2023/05/24 03:23:57;;;;;;;4.78;1.70;;;10.70;99.90;;;;;;4174928;28;20025;-63
2023/05/24 03:25:58;;;;;;;7.75;1.98;;;10.70;99.90;;;;;;4176505;28;20029;-62
2023/05/24 03:27:58;;;;;;;3.38;1.60;;;10.70;99.90;;;;;;4176661;28;20040;-62
2023/05/24 03:29:59;;;;;;;4.80;1.65;;;10.70;99.90;;;;;;4175480;28;21041;-62
2023/05/24 03:32:00;;;;;;;5.18;1.40;;;10.70;99.90;;;;;;4175043;28;20090;-62
2023/05/24 03:34:00;;;;;;;4.45;1.58;;;10.60;99.90;;;;;;4177315;28;20029;-62
2023/05/24 03:36:03;;;;;;;4.28;1.70;;;10.60;99.90;;;;;;4177003;28;20431;-61
2023/05/24 03:38:03;;;;;;;5.35;1.80;;;10.60;99.90;;;;;;4170389;28;20031;-62
2023/05/24 03:40:05;;;;;;;6.07;1.50;;;10.60;99.90;;;;;;4173584;28;20116;-63
2023/05/24 03:42:06;;;;;;;6.10;1.30;;;10.60;99.90;;;;;;4170217;28;20036;-62
2023/05/24 03:44:07;;;;;;;5.53;1.70;;;10.60;99.90;;;;;;4177552;28;20496;-61
2023/05/24 03:46:07;;;;;;;5.57;1.83;;;10.60;99.90;;;;;;4174082;28;20039;-62
2023/05/24 03:48:08;;;;;;;3.70;1.55;;;10.60;99.90;;;;;;4177269;28;20083;-62
2023/05/24 03:50:09;;;;;;;3.65;1.80;;;10.70;99.90;;;;;;4175714;28;20098;-63
2023/05/24 03:52:10;;;;;;;5.57;1.83;;;10.70;99.90;;;;;;4175969;28;20032;-62
2023/05/24 03:54:11;;;;;;;7.03;2.20;;;10.70;99.90;;;;;;4176002;28;20033;-62
2023/05/24 03:56:11;;;;;;;5.03;2.15;;;10.70;99.90;;;;;;4174765;28;20137;-61
2023/05/24 03:58:12;;;;;;;6.65;2.13;;;10.80;99.90;;;;;;4176268;28;20033;-62
2023/05/24 04:00:13;;;;;;;4.55;1.85;;;10.80;99.90;;;;;;4174729;28;20032;-62
2023/05/24 04:02:13;;;;;;;5.05;2.10;;;10.80;99.90;;;;;;4174627;28;20083;-62
2023/05/24 04:04:14;;;;;;;5.53;1.70;;;10.80;99.90;;;;;;4176846;28;20032;-62
2023/05/24 04:06:15;;;;;;;4.05;1.90;;;10.80;99.90;;;;;;4173766;28;20029;-62
2023/05/24 04:08:15;;;;;;;7.10;2.20;;;10.80;99.90;;;;;;4175872;28;20495;-62
2023/05/24 04:10:16;;;;;;;7.93;2.20;;;10.80;99.90;;;;;;4174082;28;20025;-61
2023/05/24 04:12:16;;;;;;;7.63;1.85;;;10.80;99.90;;;;;;4176954;28;20045;-62
2023/05/24 04:14:17;;;;;;;3.63;1.77;;;10.80;99.90;;;;;;4175883;28;20112;-62
2023/05/24 04:16:17;;;;;;;6.18;2.28;;;10.80;99.90;;;;;;4175631;28;20429;-61
2023/05/24 04:18:18;;;;;;;6.53;2.30;;;10.80;99.90;;;;;;4175246;28;20056;-62
2023/05/24 04:20:19;;;;;;;4.80;1.98;;;10.80;99.90;;;;;;4175498;28;20053;-62
2023/05/24 04:22:20;;;;;;;5.75;2.47;;;10.80;99.90;;;;;;4173540;28;20424;-62
2023/05/24 04:24:20;;;;;;;6.20;1.98;;;10.90;99.90;;;;;;4176267;28;20021;-61
2023/05/24 04:26:21;;;;;;;8.30;2.00;;;10.80;99.90;;;;;;4176357;28;20044;-62
2023/05/24 04:28:22;;;;;;;5.13;1.83;;;10.80;99.90;;;;;;4176077;28;20488;-62
2023/05/24 04:30:23;;;;;;;6.55;1.88;;;10.80;99.90;;;;;;4175012;28;20074;-62
2023/05/24 04:32:25;;;;;;;5.15;1.73;;;10.80;99.90;;;;;;4176405;28;20108;-62
2023/05/24 04:34:28;;;;;;;3.97;1.73;;;10.80;99.90;;;;;;4176379;28;20037;-61
2023/05/24 04:36:30;;;;;;;4.88;1.67;;;10.80;99.90;;;;;;4175316;28;20025;-62
2023/05/24 04:38:35;;;;;;;7.10;2.40;;;10.80;99.90;;;;;;4173672;28;20564;-62
2023/05/24 04:40:35;;;;;;;5.35;1.73;;;10.90;99.90;;;;;;4175265;28;20028;-61
2023/05/24 04:42:36;;;;;;;8.02;2.30;;;10.90;99.90;;;;;;4176179;28;20029;-62
2023/05/24 04:44:36;;;;;;;7.38;2.22;;;10.90;99.90;;;;;;4175711;28;20155;-61
2023/05/24 04:46:37;;;;;;;6.18;2.42;;;10.90;99.90;;;;;;4170182;28;20024;-62
2023/05/24 04:48:37;;;;;;;4.32;2.13;;;11.00;99.90;;;;;;4177250;28;20021;-62
2023/05/24 04:50:38;;;;;;;6.88;2.00;;;11.00;99.90;;;;;;4173825;28;20044;-62
2023/05/24 04:52:39;;;;;;;6.75;2.50;;;11.00;99.90;;;;;;4173307;28;20404;-61
2023/05/24 04:54:40;;;;;;;6.07;2.10;;;11.10;99.90;;;;;;4176236;28;20037;-62
2023/05/24 04:56:40;;;;;;;9.32;2.47;;;11.10;99.90;;;;;;4174522;28;20807;-62
2023/05/24 04:58:41;;;;;;;6.13;2.25;;;11.10;99.90;;;;;;4175900;28;20043;-63
2023/05/24 05:00:42;;;;;;;8.52;2.45;;;11.10;99.90;;;;;;4170476;28;20090;-62
2023/05/24 05:02:43;;;;;;;5.60;2.20;;;11.20;99.90;;;;;;4174461;28;20492;-62
2023/05/24 05:04:43;;;;;;;5.35;2.15;;;11.20;99.90;;;;;;4176562;28;20037;-62
2023/05/24 05:06:44;;;;;;;6.97;2.42;;;11.20;99.90;;;;;;4170815;28;20033;-62
2023/05/24 05:08:44;;;;;;;9.50;1.90;;;11.30;99.90;;;;;;4176858;28;20033;-62
2023/05/24 05:10:45;;;;;;;5.13;2.38;;;11.30;99.90;;;;;;4174377;28;20068;-64
2023/05/24 05:12:45;;;;;;;7.65;2.50;;;11.30;99.90;;;;;;4178852;28;20032;-64
2023/05/24 05:14:46;;;;;;;6.38;2.28;;;11.40;99.90;;;;;;4174139;28;20033;-64
2023/05/24 05:16:47;;;;;;;5.13;2.55;;;11.40;99.90;;;;;;4171166;28;20033;-64
2023/05/24 05:18:47;;;;;;;5.05;2.25;;;11.40;99.90;;;;;;4171371;28;20040;-64
2023/05/24 05:20:48;;;;;;;7.05;2.30;;;11.40;99.90;;;;;;4171288;28;20142;-65
2023/05/24 05:22:48;;;;;;;7.30;2.65;;;11.50;99.90;;;;;;4168947;28;20715;-64
2023/05/24 05:24:49;;;;;;;6.32;2.70;;;11.50;99.90;;;;;;4174328;28;20068;-64
2023/05/24 05:26:50;;;;;;;5.88;2.42;;;11.50;99.90;;;;;;4174478;28;20079;-64
2023/05/24 05:28:50;;;;;;;8.38;2.60;;;11.60;99.90;;;;;;4174027;28;20484;-64
2023/05/24 05:30:51;;;;;;;9.45;2.83;;;11.60;99.90;;;;;;4172691;28;20039;-64
2023/05/24 05:32:51;;;;;;;12.40;3.65;;;11.70;99.90;;;;;;4175864;28;20090;-64
2023/05/24 05:34:52;;;;;;;11.45;3.75;;;11.70;99.90;;;;;;4175174;28;20380;-64
2023/05/24 05:36:53;;;;;;;8.95;2.97;;;11.80;99.90;;;;;;4169628;28;20037;-64
2023/05/24 05:38:53;;;;;;;12.45;3.80;;;11.80;99.90;;;;;;4174438;28;20037;-64
2023/05/24 05:40:54;;;;;;;18.05;3.97;;;11.90;99.90;;;;;;4173355;28;20033;-62
2023/05/24 05:42:54;;;;;;;13.15;3.83;;;12.00;99.90;;;;;;4174985;28;20036;-63
2023/05/24 05:44:56;;;;;;;9.85;2.97;;;12.10;99.90;;;;;;4174003;28;20029;-61
2023/05/24 05:46:56;;;;;;;12.23;3.55;;;12.20;99.90;;;;;;4170370;28;20423;-64
2023/05/24 05:48:57;;;;;;;10.73;3.47;;;12.30;99.90;;;;;;4174851;28;20025;-64
2023/05/24 05:50:57;;;;;;;11.75;3.33;;;12.30;99.90;;;;;;4173087;28;20041;-64
2023/05/24 05:52:58;;;;;;;14.77;4.57;;;12.40;99.90;;;;;;4174584;28;20072;-66
2023/05/24 05:54:59;;;;;;;11.63;3.78;;;12.50;99.90;;;;;;4171263;28;20044;-66
2023/05/24 05:57:00;;;;;;;7.45;3.85;;;12.50;99.90;;;;;;4175904;28;20476;-66
2023/05/24 05:59:00;;;;;;;12.90;3.83;;;12.60;99.90;;;;;;4174672;28;20029;-67
2023/05/24 06:01:01;;;;;;;12.15;3.67;;;12.80;99.90;;;;;;4173750;28;20033;-67
2023/05/24 06:03:01;;;;;;;10.52;3.03;;;13.10;99.90;;;;;;4172949;28;20036;-66
2023/05/24 06:05:02;;;;;;;12.07;3.20;;;13.40;99.90;;;;;;4175451;28;20037;-67
2023/05/24 06:07:03;;;;;;;9.15;3.00;;;13.70;99.90;;;;;;4175033;28;20048;-67
2023/05/24 06:09:03;;;;;;;9.88;3.40;;;14.10;99.90;;;;;;4176915;28;20552;-67
2023/05/24 06:11:04;;;;;;;10.45;3.75;;;14.30;99.90;;;;;;4175290;28;20124;-67
2023/05/24 06:13:04;;;;;;;15.75;3.92;;;14.60;99.90;;;;;;4175476;28;20036;-67
2023/05/24 06:15:06;;;;;;;9.52;3.30;;;14.80;99.90;;;;;;4173513;28;20032;-67
2023/05/24 06:17:08;;;;;;;10.98;3.05;;;15.10;99.90;;;;;;4173833;28;20486;-67
2023/05/24 06:19:08;;;;;;;8.35;2.90;;;15.50;99.90;;;;;;4177012;28;20135;-67
2023/05/24 06:21:09;;;;;;;8.43;2.80;;;15.80;99.90;;;;;;4174913;28;20373;-67
2023/05/24 06:23:10;;;;;;;9.15;2.83;;;16.10;99.90;;;;;;4172983;28;20417;-67
2023/05/24 06:25:14;;;;;;;11.20;3.25;;;16.40;99.90;;;;;;4172657;28;20037;-67
2023/05/24 06:27:14;;;;;;;8.68;2.95;;;16.70;99.90;;;;;;4173364;28;20037;-67
2023/05/24 06:29:15;;;;;;;11.82;3.58;;;16.80;99.90;;;;;;4171118;28;20047;-67
2023/05/24 06:31:16;;;;;;;10.82;3.90;;;17.00;99.90;;;;;;4174248;28;20495;-67
2023/05/24 06:33:16;;;;;;;11.90;3.67;;;17.10;99.90;;;;;;4175179;28;20404;-67
2023/05/24 06:35:17;;;;;;;8.98;3.08;;;17.10;99.90;;;;;;4176437;28;20486;-67
2023/05/24 06:37:17;;;;;;;12.57;3.80;;;17.10;99.90;;;;;;4176126;28;20025;-67
2023/05/24 06:39:18;;;;;;;13.32;3.78;;;17.10;99.90;;;;;;4179109;28;20080;-65
2023/05/24 06:41:18;;;;;;;10.15;3.65;;;17.10;99.90;;;;;;4176087;28;20750;-64
2023/05/24 06:43:19;;;;;;;10.63;3.40;;;17.10;99.90;;;;;;4175903;28;20396;-65
2023/05/24 06:45:20;;;;;;;12.90;3.88;;;17.10;99.90;;;;;;4178602;28;20380;-66
2023/05/24 06:47:21;;;;;;;9.75;3.40;;;17.10;99.90;;;;;;4178899;28;20029;-65
2023/05/24 06:49:22;;;;;;;10.82;3.35;;;17.20;99.90;;;;;;4180227;28;20047;-66
2023/05/24 06:51:22;;;;;;;15.02;3.92;;;17.20;99.90;;;;;;4179042;28;20039;-66
2023/05/24 06:53:23;;;;;;;12.48;3.83;;;17.20;99.90;;;;;;4179729;28;20025;-66
2023/05/24 06:55:24;;;;;;;10.55;3.38;;;17.10;99.90;;;;;;4176244;28;20035;-66
2023/05/24 06:57:25;;;;;;;14.13;3.58;;;17.10;99.90;;;;;;4179973;28;20036;-66
2023/05/24 06:59:26;;;;;;;15.52;4.30;;;17.10;99.90;;;;;;4178069;28;20055;-66
2023/05/24 07:01:28;;;;;;;14.02;3.67;;;17.00;99.90;;;;;;4174869;28;20121;-66
2023/05/24 07:03:28;;;;;;;14.27;4.32;;;17.10;99.90;;;;;;4178309;28;20036;-66
2023/05/24 07:05:29;;;;;;;12.02;3.30;;;17.10;99.90;;;;;;4179810;28;20048;-65
2023/05/24 07:07:30;;;;;;;16.95;4.53;;;17.00;99.90;;;;;;4181005;28;20029;-66
2023/05/24 07:09:30;;;;;;;11.65;3.22;;;17.10;99.90;;;;;;4179348;28;20044;-66
2023/05/24 07:11:31;;;;;;;15.93;4.20;;;17.10;99.90;;;;;;4178457;28;20037;-65
2023/05/24 07:13:31;;;;;;;10.60;3.60;;;17.10;99.90;;;;;;4179258;28;20036;-66
2023/05/24 07:15:32;;;;;;;12.80;3.70;;;17.10;99.90;;;;;;4174073;28;20640;-65
2023/05/24 07:17:33;;;;;;;19.38;4.53;;;16.90;99.90;;;;;;4174633;28;20041;-66
2023/05/24 07:19:34;;;;;;;17.25;4.78;;;16.80;99.90;;;;;;4177670;28;20052;-66
2023/05/24 07:21:36;;;;;;;20.67;5.30;;;16.50;99.90;;;;;;4168175;28;20044;-66
2023/05/24 07:23:37;;;;;;;11.27;4.05;;;16.30;99.90;;;;;;4177193;28;20025;-65
2023/05/24 07:25:37;;;;;;;16.73;4.68;;;16.20;99.90;;;;;;4177729;28;20040;-66
2023/05/24 07:27:38;;;;;;;16.83;4.85;;;16.20;99.90;;;;;;4178497;28;20365;-66
2023/05/24 07:29:39;;;;;;;16.20;4.18;;;16.10;99.90;;;;;;4176776;28;20029;-65
2023/05/24 07:31:39;;;;;;;23.40;5.55;;;16.10;99.90;;;;;;4176272;28;20369;-66
2023/05/24 07:33:40;;;;;;;12.18;4.28;;;16.00;99.90;;;;;;4178177;28;20045;-66
2023/05/24 07:35:41;;;;;;;10.27;3.95;;;15.90;99.90;;;;;;4178216;28;20112;-66
2023/05/24 07:37:41;;;;;;;11.70;3.78;;;15.90;99.90;;;;;;4178618;28;20025;-65
2023/05/24 07:39:42;;;;;;;18.70;4.68;;;15.90;99.90;;;;;;4177856;28;20558;-66
2023/05/24 07:41:43;;;;;;;15.50;3.65;;;15.80;99.90;;;;;;4176497;28;20029;-66
2023/05/24 07:43:44;;;;;;;17.45;4.45;;;15.70;99.90;;;;;;4176829;28;20068;-66
2023/05/24 07:45:45;;;;;;;14.23;4.38;;;15.70;99.90;;;;;;4177372;28;20037;-66
2023/05/24 07:47:45;;;;;;;15.45;4.45;;;15.60;99.90;;;;;;4178721;28;20072;-66
2023/05/24 07:49:46;;;;;;;18.05;4.55;;;15.60;99.90;;;;;;4179064;28;20033;-66
2023/05/24 07:51:47;;;;;;;15.32;4.47;;;15.50;99.90;;;;;;4176044;28;20032;-67
2023/05/24 07:53:48;;;;;;;15.02;5.32;;;15.50;99.90;;;;;;4171848;28;20059;-65
2023/05/24 07:55:49;;;;;;;14.88;3.83;;;15.40;99.90;;;;;;4174810;28;20041;-65
2023/05/24 07:57:50;;;;;;;17.05;4.30;;;15.30;99.90;;;;;;4172754;28;20024;-66
2023/05/24 07:59:50;;;;;;;14.95;4.45;;;15.20;99.90;;;;;;4177642;28;20115;-66
2023/05/24 08:01:51;;;;;;;14.18;3.42;;;15.30;99.90;;;;;;4177820;28;20041;-65
2023/05/24 08:03:51;;;;;;;12.88;3.75;;;15.30;99.90;;;;;;4178884;28;20036;-65
2023/05/24 08:05:52;;;;;;;11.68;3.58;;;15.40;99.90;;;;;;4177357;28;20056;-65
2023/05/24 08:07:53;;;;;;;16.52;3.85;;;15.40;99.90;;;;;;4176769;28;20057;-65
2023/05/24 08:09:53;;;;;;;11.98;3.63;;;15.50;99.90;;;;;;4176070;28;20041;-65
2023/05/24 08:11:55;;;;;;;9.85;3.63;;;15.40;99.90;;;;;;4179803;28;20052;-65
2023/05/24 08:13:56;;;;;;;10.73;3.83;;;15.50;99.90;;;;;;4177141;28;20123;-65
2023/05/24 08:15:57;;;;;;;13.40;3.95;;;15.50;99.90;;;;;;4173377;28;20484;-65
2023/05/24 08:17:57;;;;;;;16.70;4.10;;;15.60;99.90;;;;;;4176649;28;20036;-65
2023/05/24 08:19:58;;;;;;;17.05;3.92;;;15.40;99.90;;;;;;4178532;28;20072;-66
2023/05/24 08:22:03;;;;;;;17.33;4.47;;;15.30;99.90;;;;;;4178800;28;20029;-65
2023/05/24 08:24:04;;;;;;;12.73;3.65;;;15.30;99.90;;;;;;4176472;28;20044;-66
2023/05/24 08:26:04;;;;;;;20.25;4.65;;;15.20;99.90;;;;;;4176270;28;20395;-66
2023/05/24 08:28:05;;;;;;;8.93;3.53;;;15.20;99.90;;;;;;4178617;28;20043;-65
2023/05/24 08:30:07;;;;;;;19.33;4.35;;;15.10;99.90;;;;;;4172565;28;20052;-65
2023/05/24 08:32:08;;;;;;;10.73;3.27;;;15.00;99.90;;;;;;4173786;28;20055;-65
2023/05/24 08:34:08;;;;;;;13.27;3.63;;;15.00;99.90;;;;;;4175053;28;20644;-65
2023/05/24 08:36:09;;;;;;;13.95;3.45;;;14.90;99.90;;;;;;4174263;28;20108;-65
2023/05/24 08:38:10;;;;;;;7.18;2.75;;;14.80;99.90;;;;;;4178132;28;20048;-65
2023/05/24 08:40:11;;;;;;;10.30;3.40;;;14.90;99.90;;;;;;4176233;28;20041;-66
2023/05/24 08:42:12;;;;;;;9.25;3.15;;;15.00;99.90;;;;;;4175943;28;20106;-65
2023/05/24 08:44:14;;;;;;;8.43;2.78;;;15.00;99.90;;;;;;4177299;28;20029;-65
2023/05/24 08:46:16;;;;;;;7.43;3.13;;;15.00;99.90;;;;;;4176213;28;20044;-66
2023/05/24 08:48:18;;;;;;;8.77;3.38;;;15.10;99.90;;;;;;4178396;28;20033;-65
2023/05/24 08:50:19;;;;;;;6.75;2.92;;;15.20;99.90;;;;;;4177281;28;20033;-66
2023/05/24 08:52:21;;;;;;;10.60;2.90;;;15.20;99.90;;;;;;4177767;28;20416;-66
2023/05/24 08:54:22;;;;;;;9.57;3.25;;;15.20;99.90;;;;;;4176553;28;20033;-65
2023/05/24 08:56:25;;;;;;;11.45;2.80;;;15.30;99.90;;;;;;4175945;28;20059;-66
2023/05/24 08:58:26;;;;;;;14.15;3.60;;;15.40;99.90;;;;;;4176161;28;20091;-66
2023/05/24 09:00:27;;;;;;;10.25;3.50;;;15.40;99.90;;;;;;4174603;28;20045;-65
2023/05/24 09:02:28;;;;;;;8.23;3.20;;;15.30;99.90;;;;;;4174979;28;20033;-65
2023/05/24 09:04:29;;;;;;;9.63;3.27;;;15.40;99.90;;;;;;4176122;28;20059;-65
2023/05/24 09:06:31;;;;;;;9.95;2.63;;;15.40;99.90;;;;;;4176026;28;20033;-65
2023/05/24 09:08:33;;;;;;;13.20;2.97;;;15.40;99.90;;;;;;4175606;28;20184;-65
2023/05/24 09:10:35;;;;;;;9.65;3.15;;;15.40;99.90;;;;;;4171836;28;24238;-66
2023/05/24 09:12:37;;;;;;;7.65;3.03;;;15.40;99.90;;;;;;4176595;28;20095;-66
2023/05/24 09:14:38;;;;;;;8.98;2.92;;;15.50;99.90;;;;;;4173599;28;20447;-66
2023/05/24 09:16:39;;;;;;;10.38;2.75;;;15.50;99.90;;;;;;4176036;28;20033;-66
2023/05/24 09:18:41;;;;;;;11.00;3.50;;;15.60;99.90;;;;;;4176249;28;20499;-66
2023/05/24 09:20:42;;;;;;;11.43;3.25;;;15.60;99.90;;;;;;4176192;28;20025;-66
2023/05/24 09:22:44;;;;;;;10.45;2.97;;;15.60;99.90;;;;;;4177669;28;20532;-66
2023/05/24 09:24:51;;;;;;;11.40;3.30;;;15.60;99.90;;;;;;4174880;28;20056;-67
2023/05/24 09:26:52;;;;;;;16.85;4.43;;;15.70;99.90;;;;;;4176764;28;20388;-66
2023/05/24 09:28:56;;;;;;;17.73;4.18;;;15.70;99.90;;;;;;4175242;28;20108;-66
2023/05/24 09:30:59;;;;;;;14.57;3.70;;;15.70;99.90;;;;;;4172342;28;20033;-66
2023/05/24 09:33:00;;;;;;;8.23;2.88;;;15.80;99.90;;;;;;4168622;28;20029;-66
2023/05/24 09:35:01;;;;;;;8.65;3.17;;;15.80;99.90;;;;;;4175400;28;20040;-66
2023/05/24 09:37:01;;;;;;;16.27;4.13;;;15.90;99.90;;;;;;4176383;28;20025;-65
2023/05/24 09:39:08;;;;;;;8.27;3.00;;;16.00;99.90;;;;;;4177718;28;20029;-66
2023/05/24 09:41:09;;;;;;;15.43;3.42;;;16.00;99.90;;;;;;4176409;28;20029;-66
2023/05/24 09:43:10;;;;;;;10.32;3.00;;;16.10;99.90;;;;;;4176219;28;20043;-66
2023/05/24 09:45:11;;;;;;;10.07;3.10;;;16.10;99.90;;;;;;4174854;28;20037;-66
2023/05/24 09:47:12;;;;;;;10.93;3.45;;;16.20;99.90;;;;;;4177494;28;20064;-65
2023/05/24 09:49:13;;;;;;;9.15;3.42;;;16.20;99.90;;;;;;4179086;28;20029;-66
2023/05/24 09:51:15;;;;;;;11.68;3.40;;;16.30;99.90;;;;;;4176147;28;20373;-65
2023/05/24 09:53:17;;;;;;;15.10;3.83;;;16.30;99.90;;;;;;4176953;28;20163;-67
2023/05/24 09:55:19;;;;;;;11.68;3.83;;;16.30;99.90;;;;;;4173358;28;20762;-66
2023/05/24 09:57:22;;;;;;;11.75;3.70;;;16.30;99.90;;;;;;4172229;28;20506;-66
2023/05/24 09:59:23;;;;;;;11.77;3.63;;;16.20;99.90;;;;;;4175748;28;20044;-66
2023/05/24 10:01:25;;;;;;;10.32;2.92;;;16.30;99.90;;;;;;4175141;28;20037;-66
2023/05/24 10:03:26;;;;;;;10.23;2.95;;;16.30;99.90;;;;;;4177006;28;20081;-66
2023/05/24 10:05:27;;;;;;;7.70;2.42;;;16.30;99.90;;;;;;4175688;28;20124;-66
2023/05/24 10:07:29;;;;;;;9.73;3.30;;;16.30;99.90;;;;;;4177353;28;20036;-66
2023/05/24 10:09:33;;;;;;;12.07;3.17;;;16.30;99.90;;;;;;4175240;28;20559;-66
2023/05/24 10:11:35;;;;;;;9.43;3.17;;;16.30;99.90;;;;;;4175743;28;20083;-66
2023/05/24 10:13:38;;;;;;;14.90;3.85;;;16.30;99.90;;;;;;4174436;28;20029;-66
2023/05/24 10:15:38;;;;;;;9.23;3.17;;;16.30;99.90;;;;;;4175106;28;20468;-66
2023/05/24 10:17:39;;;;;;;13.18;3.45;;;16.30;99.90;;;;;;4175407;28;20064;-65
2023/05/24 10:19:40;;;;;;;7.43;3.42;;;16.30;99.90;;;;;;4175751;28;20041;-66
2023/05/24 10:21:42;;;;;;;8.35;3.08;;;16.20;99.90;;;;;;4173756;28;20041;-65
2023/05/24 10:23:46;;;;;;;10.60;2.88;;;16.20;99.90;;;;;;4171403;28;20052;-66
2023/05/24 10:26:12;;;;;;;8.23;2.70;;;16.30;99.90;;;;;;4175536;28;20100;-66
2023/05/24 10:28:15;;;;;;;6.15;2.28;;;16.30;99.90;;;;;;4166002;28;20044;-65
2023/05/24 10:30:46;;;;;;;12.45;3.00;;;16.30;99.90;;;;;;4172199;28;20090;-68